sensor_id;sensor_type;location;lat;lon;timestamp;noise_LAeq;noise_LA_min;noise_LA_max;noise_LA01;noise_LA95
61270;Laerm;47150;53.032;8.960;2022-11-23T00:00:55;30.84;29.68;32.01;;
61270;Laerm;47150;53.032;8.960;2022-11-23T00:03:20;30.88;29.60;32.06;;
61270;Laerm;47150;53.032;8.960;2022-11-23T00:05:45;30.91;29.61;32.33;;
61270;Laerm;47150;53.032;8.960;2022-11-23T00:08:11;30.95;29.47;32.13;;
61270;Laerm;47150;53.032;8.960;2022-11-23T00:10:36;30.94;29.47;32.05;;
61270;Laerm;47150;53.032;8.960;2022-11-23T00:13:01;30.88;29.79;32.04;;
61270;Laerm;47150;53.032;8.960;2022-11-23T00:15:27;30.84;29.66;31.90;;
61270;Laerm;47150;53.032;8.960;2022-11-23T00:17:52;30.78;29.48;31.86;;
61270;Laerm;47150;53.032;8.960;2022-11-23T00:20:18;30.69;29.34;31.95;;
61270;Laerm;47150;53.032;8.960;2022-11-23T00:22:43;30.57;29.24;31.80;;
61270;Laerm;47150;53.032;8.960;2022-11-23T00:25:08;30.36;28.95;31.55;;
61270;Laerm;47150;53.032;8.960;2022-11-23T00:27:34;29.94;28.73;31.05;;
61270;Laerm;47150;53.032;8.960;2022-11-23T00:29:59;29.71;28.49;30.80;;
61270;Laerm;47150;53.032;8.960;2022-11-23T00:32:24;29.62;28.38;30.72;;
61270;Laerm;47150;53.032;8.960;2022-11-23T00:34:51;29.65;28.48;30.77;;
61270;Laerm;47150;53.032;8.960;2022-11-23T00:37:16;29.70;28.50;31.07;;
61270;Laerm;47150;53.032;8.960;2022-11-23T00:39:42;29.73;28.58;30.87;;
61270;Laerm;47150;53.032;8.960;2022-11-23T00:42:07;29.73;28.51;30.79;;
61270;Laerm;47150;53.032;8.960;2022-11-23T00:44:32;29.73;28.55;30.78;;
61270;Laerm;47150;53.032;8.960;2022-11-23T00:46:58;29.71;28.64;30.92;;
61270;Laerm;47150;53.032;8.960;2022-11-23T00:49:23;29.70;28.48;31.15;;
61270;Laerm;47150;53.032;8.960;2022-11-23T00:51:48;29.69;28.65;30.85;;
61270;Laerm;47150;53.032;8.960;2022-11-23T00:54:13;29.68;28.39;30.89;;
61270;Laerm;47150;53.032;8.960;2022-11-23T00:56:39;29.69;28.53;30.85;;
61270;Laerm;47150;53.032;8.960;2022-11-23T00:59:04;29.72;28.27;30.94;;
61270;Laerm;47150;53.032;8.960;2022-11-23T01:01:32;29.77;28.60;30.94;;
61270;Laerm;47150;53.032;8.960;2022-11-23T01:03:59;29.77;28.60;30.93;;
61270;Laerm;47150;53.032;8.960;2022-11-23T01:06:28;29.60;28.39;30.69;;
61270;Laerm;47150;53.032;8.960;2022-11-23T01:09:04;29.40;28.05;30.49;;
61270;Laerm;47150;53.032;8.960;2022-11-23T01:11:31;29.26;28.13;30.33;;
61270;Laerm;47150;53.032;8.960;2022-11-23T01:13:57;29.16;28.05;30.32;;
61270;Laerm;47150;53.032;8.960;2022-11-23T01:16:25;29.08;27.90;30.33;;
61270;Laerm;47150;53.032;8.960;2022-11-23T01:19:17;29.01;27.95;30.48;;
61270;Laerm;47150;53.032;8.960;2022-11-23T01:21:43;28.96;27.85;30.37;;
61270;Laerm;47150;53.032;8.960;2022-11-23T01:24:13;28.90;27.62;29.94;;
61270;Laerm;47150;53.032;8.960;2022-11-23T01:26:39;28.87;27.66;30.20;;
61270;Laerm;47150;53.032;8.960;2022-11-23T01:29:05;28.83;27.51;29.98;;
61270;Laerm;47150;53.032;8.960;2022-11-23T01:31:30;28.80;27.58;29.88;;
61270;Laerm;47150;53.032;8.960;2022-11-23T01:33:58;28.78;27.77;29.88;;
61270;Laerm;47150;53.032;8.960;2022-11-23T01:36:30;28.74;27.54;29.99;;
61270;Laerm;47150;53.032;8.960;2022-11-23T01:38:57;28.72;27.62;29.86;;
61270;Laerm;47150;53.032;8.960;2022-11-23T01:41:29;28.70;27.29;29.97;;
61270;Laerm;47150;53.032;8.960;2022-11-23T01:43:54;28.68;27.38;29.76;;
61270;Laerm;47150;53.032;8.960;2022-11-23T01:46:20;28.66;27.58;29.80;;
61270;Laerm;47150;53.032;8.960;2022-11-23T01:51:27;28.63;27.53;29.68;;
61270;Laerm;47150;53.032;8.960;2022-11-23T01:53:59;28.60;27.25;29.64;;
61270;Laerm;47150;53.032;8.960;2022-11-23T01:56:31;28.58;27.34;29.61;;
61270;Laerm;47150;53.032;8.960;2022-11-23T01:58:59;28.57;27.36;29.80;;
61270;Laerm;47150;53.032;8.960;2022-11-23T02:01:26;28.55;27.31;29.72;;
61270;Laerm;47150;53.032;8.960;2022-11-23T02:03:53;28.54;27.44;29.57;;
61270;Laerm;47150;53.032;8.960;2022-11-23T02:06:20;28.50;27.25;29.59;;
61270;Laerm;47150;53.032;8.960;2022-11-23T02:08:47;28.49;27.37;29.60;;
61270;Laerm;47150;53.032;8.960;2022-11-23T02:11:14;28.46;27.29;29.45;;
61270;Laerm;47150;53.032;8.960;2022-11-23T02:13:44;28.45;27.26;29.51;;
61270;Laerm;47150;53.032;8.960;2022-11-23T02:16:10;28.44;27.33;29.55;;
61270;Laerm;47150;53.032;8.960;2022-11-23T02:18:37;28.42;27.25;29.43;;
61270;Laerm;47150;53.032;8.960;2022-11-23T02:21:05;28.41;27.16;29.39;;
61270;Laerm;47150;53.032;8.960;2022-11-23T02:26:26;28.36;27.11;29.55;;
61270;Laerm;47150;53.032;8.960;2022-11-23T02:31:29;28.33;27.00;29.48;;
61270;Laerm;47150;53.032;8.960;2022-11-23T02:33:55;28.31;27.14;29.51;;
61270;Laerm;47150;53.032;8.960;2022-11-23T02:39:27;28.26;26.99;29.29;;
61270;Laerm;47150;53.032;8.960;2022-11-23T02:41:52;28.22;26.96;29.36;;
61270;Laerm;47150;53.032;8.960;2022-11-23T02:47:14;28.20;27.09;29.61;;
61270;Laerm;47150;53.032;8.960;2022-11-23T02:49:40;28.19;26.98;29.22;;
61270;Laerm;47150;53.032;8.960;2022-11-23T02:52:06;28.19;26.95;29.34;;
61270;Laerm;47150;53.032;8.960;2022-11-23T02:54:32;28.18;26.96;29.34;;
61270;Laerm;47150;53.032;8.960;2022-11-23T02:56:57;28.17;27.06;29.40;;
61270;Laerm;47150;53.032;8.960;2022-11-23T02:59:23;28.16;26.86;29.20;;
61270;Laerm;47150;53.032;8.960;2022-11-23T03:01:48;28.15;26.83;29.38;;
61270;Laerm;47150;53.032;8.960;2022-11-23T03:04:14;28.13;26.69;29.51;;
61270;Laerm;47150;53.032;8.960;2022-11-23T03:06:40;28.13;26.84;29.19;;
61270;Laerm;47150;53.032;8.960;2022-11-23T03:09:05;28.13;26.91;29.22;;
61270;Laerm;47150;53.032;8.960;2022-11-23T03:11:32;28.13;26.73;29.33;;
61270;Laerm;47150;53.032;8.960;2022-11-23T03:13:57;28.11;26.98;29.16;;
61270;Laerm;47150;53.032;8.960;2022-11-23T03:16:23;28.11;26.92;29.24;;
61270;Laerm;47150;53.032;8.960;2022-11-23T03:18:49;28.10;26.93;29.40;;
61270;Laerm;47150;53.032;8.960;2022-11-23T03:21:14;28.09;26.95;29.03;;
61270;Laerm;47150;53.032;8.960;2022-11-23T03:23:39;28.08;26.86;29.22;;
61270;Laerm;47150;53.032;8.960;2022-11-23T03:26:05;28.07;26.73;29.11;;
61270;Laerm;47150;53.032;8.960;2022-11-23T03:28:30;28.07;26.79;29.17;;
61270;Laerm;47150;53.032;8.960;2022-11-23T03:30:56;28.07;26.83;29.23;;
61270;Laerm;47150;53.032;8.960;2022-11-23T03:33:21;28.05;26.85;29.28;;
61270;Laerm;47150;53.032;8.960;2022-11-23T03:35:47;28.06;26.75;29.10;;
61270;Laerm;47150;53.032;8.960;2022-11-23T03:38:12;28.05;26.81;29.20;;
61270;Laerm;47150;53.032;8.960;2022-11-23T03:40:37;28.06;26.93;29.24;;
61270;Laerm;47150;53.032;8.960;2022-11-23T03:43:03;28.05;26.75;29.26;;
61270;Laerm;47150;53.032;8.960;2022-11-23T03:45:28;28.05;26.82;29.30;;
61270;Laerm;47150;53.032;8.960;2022-11-23T03:47:54;28.05;26.89;29.16;;
61270;Laerm;47150;53.032;8.960;2022-11-23T03:50:19;28.04;26.87;29.11;;
61270;Laerm;47150;53.032;8.960;2022-11-23T03:52:47;28.04;26.87;29.29;;
61270;Laerm;47150;53.032;8.960;2022-11-23T03:55:12;28.04;26.70;29.21;;
61270;Laerm;47150;53.032;8.960;2022-11-23T03:57:38;28.01;26.70;29.23;;
61270;Laerm;47150;53.032;8.960;2022-11-23T04:00:04;28.02;26.83;29.12;;
61270;Laerm;47150;53.032;8.960;2022-11-23T04:02:29;28.02;26.80;29.10;;
61270;Laerm;47150;53.032;8.960;2022-11-23T04:04:54;28.01;26.78;29.11;;
61270;Laerm;47150;53.032;8.960;2022-11-23T04:07:20;28.01;26.91;29.01;;
61270;Laerm;47150;53.032;8.960;2022-11-23T04:09:45;28.00;26.71;29.08;;
61270;Laerm;47150;53.032;8.960;2022-11-23T04:12:10;28.00;26.84;29.10;;
61270;Laerm;47150;53.032;8.960;2022-11-23T04:14:36;27.99;26.78;29.06;;
61270;Laerm;47150;53.032;8.960;2022-11-23T04:17:01;27.99;26.72;29.31;;
61270;Laerm;47150;53.032;8.960;2022-11-23T04:19:28;27.97;26.44;29.13;;
61270;Laerm;47150;53.032;8.960;2022-11-23T04:21:53;27.96;26.75;29.09;;
61270;Laerm;47150;53.032;8.960;2022-11-23T04:24:19;27.97;26.88;29.09;;
61270;Laerm;47150;53.032;8.960;2022-11-23T04:26:45;27.96;26.88;29.05;;
61270;Laerm;47150;53.032;8.960;2022-11-23T04:29:10;27.95;26.91;29.05;;
61270;Laerm;47150;53.032;8.960;2022-11-23T04:31:35;27.94;26.74;29.06;;
61270;Laerm;47150;53.032;8.960;2022-11-23T04:34:01;27.94;26.61;29.23;;
61270;Laerm;47150;53.032;8.960;2022-11-23T04:36:26;27.92;26.89;29.30;;
61270;Laerm;47150;53.032;8.960;2022-11-23T04:38:51;27.92;26.81;29.10;;
61270;Laerm;47150;53.032;8.960;2022-11-23T04:41:17;27.92;26.47;29.19;;
61270;Laerm;47150;53.032;8.960;2022-11-23T04:43:42;27.92;26.70;29.10;;
61270;Laerm;47150;53.032;8.960;2022-11-23T04:46:09;27.91;26.70;29.01;;
61270;Laerm;47150;53.032;8.960;2022-11-23T04:48:35;27.90;26.70;29.15;;
61270;Laerm;47150;53.032;8.960;2022-11-23T04:51:00;27.91;26.59;29.09;;
61270;Laerm;47150;53.032;8.960;2022-11-23T04:53:25;27.89;26.80;29.03;;
61270;Laerm;47150;53.032;8.960;2022-11-23T04:55:51;27.90;26.47;29.01;;
61270;Laerm;47150;53.032;8.960;2022-11-23T04:58:16;27.88;26.78;28.97;;
61270;Laerm;47150;53.032;8.960;2022-11-23T05:00:41;27.89;26.81;29.12;;
61270;Laerm;47150;53.032;8.960;2022-11-23T05:03:07;27.88;26.62;29.04;;
61270;Laerm;47150;53.032;8.960;2022-11-23T05:05:32;27.87;26.48;29.28;;
61270;Laerm;47150;53.032;8.960;2022-11-23T05:07:58;27.86;26.38;28.99;;
61270;Laerm;47150;53.032;8.960;2022-11-23T05:10:24;27.87;26.59;29.14;;
61270;Laerm;47150;53.032;8.960;2022-11-23T05:12:49;27.87;26.72;29.10;;
61270;Laerm;47150;53.032;8.960;2022-11-23T05:15:14;27.86;26.73;28.94;;
61270;Laerm;47150;53.032;8.960;2022-11-23T05:17:40;27.87;26.65;29.04;;
61270;Laerm;47150;53.032;8.960;2022-11-23T05:20:06;27.86;26.60;28.90;;
61270;Laerm;47150;53.032;8.960;2022-11-23T05:22:31;27.86;26.68;28.95;;
61270;Laerm;47150;53.032;8.960;2022-11-23T05:24:57;27.86;26.70;29.04;;
61270;Laerm;47150;53.032;8.960;2022-11-23T05:27:22;27.86;26.65;28.90;;
61270;Laerm;47150;53.032;8.960;2022-11-23T05:29:48;27.86;26.68;29.00;;
61270;Laerm;47150;53.032;8.960;2022-11-23T05:32:14;27.86;26.72;28.88;;
61270;Laerm;47150;53.032;8.960;2022-11-23T05:34:39;27.86;26.69;28.90;;
61270;Laerm;47150;53.032;8.960;2022-11-23T05:37:04;27.86;26.67;29.36;;
61270;Laerm;47150;53.032;8.960;2022-11-23T05:39:30;27.86;26.70;29.12;;
61270;Laerm;47150;53.032;8.960;2022-11-23T05:41:55;27.87;26.66;29.02;;
61270;Laerm;47150;53.032;8.960;2022-11-23T05:44:20;27.88;26.30;29.05;;
61270;Laerm;47150;53.032;8.960;2022-11-23T05:46:46;27.90;26.72;28.98;;
61270;Laerm;47150;53.032;8.960;2022-11-23T05:49:11;27.92;26.47;28.97;;
61270;Laerm;47150;53.032;8.960;2022-11-23T05:51:36;27.93;26.51;29.02;;
61270;Laerm;47150;53.032;8.960;2022-11-23T05:54:02;27.96;26.71;29.06;;
61270;Laerm;47150;53.032;8.960;2022-11-23T05:56:27;27.99;26.68;29.27;;
61270;Laerm;47150;53.032;8.960;2022-11-23T05:58:54;28.03;26.70;29.18;;
61270;Laerm;47150;53.032;8.960;2022-11-23T06:01:20;28.07;26.84;29.16;;
61270;Laerm;47150;53.032;8.960;2022-11-23T06:03:45;28.13;26.78;29.30;;
61270;Laerm;47150;53.032;8.960;2022-11-23T06:06:11;28.18;27.08;29.33;;
61270;Laerm;47150;53.032;8.960;2022-11-23T06:08:36;28.28;27.10;29.49;;
61270;Laerm;47150;53.032;8.960;2022-11-23T06:11:02;28.37;27.07;29.64;;
61270;Laerm;47150;53.032;8.960;2022-11-23T06:13:27;28.50;27.38;29.57;;
61270;Laerm;47150;53.032;8.960;2022-11-23T06:15:53;28.69;27.47;29.94;;
61270;Laerm;47150;53.032;8.960;2022-11-23T06:18:18;28.84;27.77;30.02;;
61270;Laerm;47150;53.032;8.960;2022-11-23T06:20:43;28.98;27.79;29.98;;
61270;Laerm;47150;53.032;8.960;2022-11-23T06:23:09;29.10;27.87;30.12;;
61270;Laerm;47150;53.032;8.960;2022-11-23T06:25:35;29.19;27.95;30.26;;
61270;Laerm;47150;53.032;8.960;2022-11-23T06:28:02;29.29;28.15;30.35;;
61270;Laerm;47150;53.032;8.960;2022-11-23T06:30:28;29.38;27.89;30.57;;
61270;Laerm;47150;53.032;8.960;2022-11-23T06:32:55;29.47;28.36;30.67;;
61270;Laerm;47150;53.032;8.960;2022-11-23T06:35:21;29.54;28.48;30.68;;
61270;Laerm;47150;53.032;8.960;2022-11-23T06:37:47;29.61;28.42;30.83;;
61270;Laerm;47150;53.032;8.960;2022-11-23T06:40:13;29.68;28.52;30.70;;
61270;Laerm;47150;53.032;8.960;2022-11-23T06:42:39;29.72;28.48;30.96;;
61270;Laerm;47150;53.032;8.960;2022-11-23T06:45:05;29.75;28.53;31.03;;
61270;Laerm;47150;53.032;8.960;2022-11-23T06:47:30;29.75;28.55;30.77;;
61270;Laerm;47150;53.032;8.960;2022-11-23T06:49:56;29.74;28.54;30.94;;
61270;Laerm;47150;53.032;8.960;2022-11-23T06:52:21;29.72;28.29;30.85;;
61270;Laerm;47150;53.032;8.960;2022-11-23T06:54:46;29.71;28.64;30.75;;
61270;Laerm;47150;53.032;8.960;2022-11-23T06:57:12;29.69;28.44;30.82;;
61270;Laerm;47150;53.032;8.960;2022-11-23T06:59:37;29.71;28.53;30.89;;
61270;Laerm;47150;53.032;8.960;2022-11-23T07:02:03;29.72;28.56;30.70;;
61270;Laerm;47150;53.032;8.960;2022-11-23T07:04:31;29.76;28.58;30.84;;
61270;Laerm;47150;53.032;8.960;2022-11-23T07:06:56;29.76;28.58;30.91;;
61270;Laerm;47150;53.032;8.960;2022-11-23T07:09:22;29.79;28.35;30.90;;
61270;Laerm;47150;53.032;8.960;2022-11-23T07:11:47;29.81;28.56;30.84;;
61270;Laerm;47150;53.032;8.960;2022-11-23T07:14:13;29.82;28.43;30.84;;
61270;Laerm;47150;53.032;8.960;2022-11-23T07:16:38;29.81;28.48;30.93;;
61270;Laerm;47150;53.032;8.960;2022-11-23T07:19:03;29.79;28.63;30.91;;
61270;Laerm;47150;53.032;8.960;2022-11-23T07:21:29;29.78;28.63;30.97;;
61270;Laerm;47150;53.032;8.960;2022-11-23T07:23:54;29.76;28.49;30.99;;
61270;Laerm;47150;53.032;8.960;2022-11-23T07:26:19;29.74;28.67;30.98;;
61270;Laerm;47150;53.032;8.960;2022-11-23T07:28:45;29.70;28.46;30.81;;
61270;Laerm;47150;53.032;8.960;2022-11-23T07:31:10;29.66;28.50;30.82;;
61270;Laerm;47150;53.032;8.960;2022-11-23T07:33:36;29.63;28.25;30.64;;
61270;Laerm;47150;53.032;8.960;2022-11-23T07:36:01;29.60;28.32;30.64;;
61270;Laerm;47150;53.032;8.960;2022-11-23T07:38:28;29.58;28.44;30.72;;
61270;Laerm;47150;53.032;8.960;2022-11-23T07:40:53;29.56;28.25;30.65;;
61270;Laerm;47150;53.032;8.960;2022-11-23T07:43:18;29.55;28.21;30.72;;
61270;Laerm;47150;53.032;8.960;2022-11-23T07:45:44;29.58;28.37;30.77;;
61270;Laerm;47150;53.032;8.960;2022-11-23T07:48:11;29.62;28.49;30.73;;
61270;Laerm;47150;53.032;8.960;2022-11-23T07:50:38;29.69;28.60;30.60;;
61270;Laerm;47150;53.032;8.960;2022-11-23T07:53:05;29.77;28.64;30.87;;
61270;Laerm;47150;53.032;8.960;2022-11-23T07:55:30;29.85;28.63;31.02;;
61270;Laerm;47150;53.032;8.960;2022-11-23T07:57:57;29.92;28.71;31.06;;
61270;Laerm;47150;53.032;8.960;2022-11-23T08:00:24;29.99;28.72;31.21;;
61270;Laerm;47150;53.032;8.960;2022-11-23T08:02:50;30.06;28.83;31.32;;
61270;Laerm;47150;53.032;8.960;2022-11-23T08:05:16;30.12;29.03;31.18;;
61270;Laerm;47150;53.032;8.960;2022-11-23T08:07:42;30.18;29.05;31.19;;
61270;Laerm;47150;53.032;8.960;2022-11-23T08:10:09;30.25;29.00;31.45;;
61270;Laerm;47150;53.032;8.960;2022-11-23T08:12:35;30.36;29.30;31.48;;
61270;Laerm;47150;53.032;8.960;2022-11-23T08:15:00;30.46;29.31;31.51;;
61270;Laerm;47150;53.032;8.960;2022-11-23T08:17:25;30.59;29.42;31.87;;
61270;Laerm;47150;53.032;8.960;2022-11-23T08:19:51;30.70;29.68;31.76;;
61270;Laerm;47150;53.032;8.960;2022-11-23T08:22:16;30.73;29.24;31.81;;
61270;Laerm;47150;53.032;8.960;2022-11-23T08:24:42;30.75;29.50;32.00;;
61270;Laerm;47150;53.032;8.960;2022-11-23T08:27:08;30.79;29.43;31.90;;
61270;Laerm;47150;53.032;8.960;2022-11-23T08:29:33;30.87;29.67;32.03;;
61270;Laerm;47150;53.032;8.960;2022-11-23T08:31:58;30.93;29.77;32.11;;
61270;Laerm;47150;53.032;8.960;2022-11-23T08:34:24;30.92;29.67;32.08;;
61270;Laerm;47150;53.032;8.960;2022-11-23T08:36:49;30.95;29.61;31.99;;
61270;Laerm;47150;53.032;8.960;2022-11-23T08:39:15;31.00;29.73;32.10;;
61270;Laerm;47150;53.032;8.960;2022-11-23T08:41:41;31.05;29.76;32.27;;
61270;Laerm;47150;53.032;8.960;2022-11-23T08:44:07;31.11;29.82;32.40;;
61270;Laerm;47150;53.032;8.960;2022-11-23T08:46:37;31.17;29.85;32.37;;
61270;Laerm;47150;53.032;8.960;2022-11-23T08:49:03;31.25;30.19;32.35;;
61270;Laerm;47150;53.032;8.960;2022-11-23T08:51:28;31.33;29.99;32.44;;
61270;Laerm;47150;53.032;8.960;2022-11-23T08:53:54;31.38;30.18;32.74;;
61270;Laerm;47150;53.032;8.960;2022-11-23T08:56:19;31.45;30.27;32.53;;
61270;Laerm;47150;53.032;8.960;2022-11-23T08:58:45;31.55;30.30;32.63;;
61270;Laerm;47150;53.032;8.960;2022-11-23T09:01:12;31.61;30.24;32.81;;
61270;Laerm;47150;53.032;8.960;2022-11-23T09:03:39;31.68;30.48;32.91;;
61270;Laerm;47150;53.032;8.960;2022-11-23T09:06:05;31.75;30.42;33.10;;
61270;Laerm;47150;53.032;8.960;2022-11-23T09:08:30;31.72;30.34;32.90;;
61270;Laerm;47150;53.032;8.960;2022-11-23T09:11:04;31.88;30.57;33.17;;
61270;Laerm;47150;53.032;8.960;2022-11-23T09:13:30;32.01;30.53;33.14;;
61270;Laerm;47150;53.032;8.960;2022-11-23T09:15:58;32.01;30.79;33.56;;
61270;Laerm;47150;53.032;8.960;2022-11-23T09:18:24;32.05;30.77;33.30;;
61270;Laerm;47150;53.032;8.960;2022-11-23T09:20:50;32.12;30.74;33.56;;
61270;Laerm;47150;53.032;8.960;2022-11-23T09:23:15;32.15;30.90;33.27;;
61270;Laerm;47150;53.032;8.960;2022-11-23T09:25:40;32.11;30.94;33.28;;
61270;Laerm;47150;53.032;8.960;2022-11-23T09:28:07;32.12;30.85;33.30;;
61270;Laerm;47150;53.032;8.960;2022-11-23T09:30:33;32.07;30.91;33.32;;
61270;Laerm;47150;53.032;8.960;2022-11-23T09:32:58;32.11;30.64;33.26;;
61270;Laerm;47150;53.032;8.960;2022-11-23T09:35:23;32.09;30.94;33.22;;
61270;Laerm;47150;53.032;8.960;2022-11-23T09:37:57;32.27;30.98;33.45;;
61270;Laerm;47150;53.032;8.960;2022-11-23T09:40:23;32.32;31.14;33.48;;
61270;Laerm;47150;53.032;8.960;2022-11-23T09:45:49;32.50;31.37;33.66;;
61270;Laerm;47150;53.032;8.960;2022-11-23T09:51:00;32.39;31.19;33.58;;
61270;Laerm;47150;53.032;8.960;2022-11-23T09:53:36;32.34;30.99;33.41;;
61270;Laerm;47150;53.032;8.960;2022-11-23T09:56:04;32.30;31.05;33.42;;
61270;Laerm;47150;53.032;8.960;2022-11-23T09:58:34;32.34;31.28;33.49;;
61270;Laerm;47150;53.032;8.960;2022-11-23T10:01:11;32.39;31.15;33.61;;
61270;Laerm;47150;53.032;8.960;2022-11-23T10:03:40;32.53;31.27;33.68;;
61270;Laerm;47150;53.032;8.960;2022-11-23T10:06:27;32.53;31.22;33.57;;
61270;Laerm;47150;53.032;8.960;2022-11-23T10:19:33;32.86;31.60;33.91;;
61270;Laerm;47150;53.032;8.960;2022-11-23T10:22:09;32.87;31.60;34.06;;
61270;Laerm;47150;53.032;8.960;2022-11-23T10:24:43;32.96;31.80;34.03;;
61270;Laerm;47150;53.032;8.960;2022-11-23T10:27:23;33.07;31.94;34.17;;
61270;Laerm;47150;53.032;8.960;2022-11-23T10:29:49;33.23;32.08;34.28;;
61270;Laerm;47150;53.032;8.960;2022-11-23T10:32:31;33.35;32.09;34.47;;
61270;Laerm;47150;53.032;8.960;2022-11-23T10:37:28;33.37;32.11;34.59;;
61270;Laerm;47150;53.032;8.960;2022-11-23T10:39:53;33.49;32.24;34.65;;
61270;Laerm;47150;53.032;8.960;2022-11-23T10:42:29;33.77;32.55;34.87;;
61270;Laerm;47150;53.032;8.960;2022-11-23T10:44:57;33.76;32.50;34.89;;
61270;Laerm;47150;53.032;8.960;2022-11-23T10:47:38;33.80;32.41;35.05;;
61270;Laerm;47150;53.032;8.960;2022-11-23T10:50:19;33.72;32.49;34.79;;
61270;Laerm;47150;53.032;8.960;2022-11-23T10:52:57;33.78;32.42;34.93;;
61270;Laerm;47150;53.032;8.960;2022-11-23T10:55:27;34.03;32.83;35.13;;
61270;Laerm;47150;53.032;8.960;2022-11-23T10:57:53;34.15;32.87;35.33;;
61270;Laerm;47150;53.032;8.960;2022-11-23T11:00:20;34.29;33.20;35.31;;
61270;Laerm;47150;53.032;8.960;2022-11-23T11:02:51;34.39;33.20;35.72;;
61270;Laerm;47150;53.032;8.960;2022-11-23T11:05:35;34.36;33.06;36.00;;
61270;Laerm;47150;53.032;8.960;2022-11-23T11:08:11;34.50;33.26;35.77;;
61270;Laerm;47150;53.032;8.960;2022-11-23T11:10:40;34.65;33.23;35.83;;
61270;Laerm;47150;53.032;8.960;2022-11-23T11:18:36;35.21;33.81;36.48;;
61270;Laerm;47150;53.032;8.960;2022-11-23T11:21:20;35.51;34.33;36.67;;
61270;Laerm;47150;53.032;8.960;2022-11-23T11:23:54;35.61;34.35;36.99;;
61270;Laerm;47150;53.032;8.960;2022-11-23T11:26:24;35.83;34.39;37.19;;
61270;Laerm;47150;53.032;8.960;2022-11-23T11:29:02;35.91;34.66;37.10;;
61270;Laerm;47150;53.032;8.960;2022-11-23T11:31:42;35.80;34.49;37.03;;
61270;Laerm;47150;53.032;8.960;2022-11-23T11:37:16;35.48;34.20;37.00;;
61270;Laerm;47150;53.032;8.960;2022-11-23T11:39:48;35.50;34.24;36.66;;
61270;Laerm;47150;53.032;8.960;2022-11-23T11:42:40;35.71;34.31;37.12;;
61270;Laerm;47150;53.032;8.960;2022-11-23T11:45:15;35.89;34.22;37.27;;
61270;Laerm;47150;53.032;8.960;2022-11-23T11:50:56;35.95;34.72;37.26;;
61270;Laerm;47150;53.032;8.960;2022-11-23T11:53:41;35.98;34.73;37.12;;
61270;Laerm;47150;53.032;8.960;2022-11-23T11:56:30;35.98;34.63;37.23;;
61270;Laerm;47150;53.032;8.960;2022-11-23T11:59:08;36.04;34.80;37.20;;
61270;Laerm;47150;53.032;8.960;2022-11-23T12:07:51;36.03;34.78;37.36;;
61270;Laerm;47150;53.032;8.960;2022-11-23T12:13:12;36.03;34.79;37.26;;
61270;Laerm;47150;53.032;8.960;2022-11-23T12:15:40;36.02;34.79;37.18;;
61270;Laerm;47150;53.032;8.960;2022-11-23T12:26:11;35.83;34.58;36.97;;
61270;Laerm;47150;53.032;8.960;2022-11-23T12:31:39;35.84;34.49;37.07;;
61270;Laerm;47150;53.032;8.960;2022-11-23T12:34:16;35.80;34.24;37.14;;
61270;Laerm;47150;53.032;8.960;2022-11-23T12:56:09;36.11;34.90;37.29;;
61270;Laerm;47150;53.032;8.960;2022-11-23T12:58:39;36.09;34.80;37.34;;
61270;Laerm;47150;53.032;8.960;2022-11-23T13:23:09;36.33;34.94;37.51;;
61270;Laerm;47150;53.032;8.960;2022-11-23T13:25:35;36.49;35.25;41.01;;
61270;Laerm;47150;53.032;8.960;2022-11-23T13:28:25;36.71;35.37;37.84;;
61270;Laerm;47150;53.032;8.960;2022-11-23T13:31:29;36.87;35.49;38.10;;
61270;Laerm;47150;53.032;8.960;2022-11-23T13:34:00;36.94;35.67;38.17;;
61270;Laerm;47150;53.032;8.960;2022-11-23T13:38:58;37.12;35.65;38.30;;
61270;Laerm;47150;53.032;8.960;2022-11-23T13:47:05;37.26;35.90;38.69;;
61270;Laerm;47150;53.032;8.960;2022-11-23T13:49:43;37.29;35.92;38.56;;
61270;Laerm;47150;53.032;8.960;2022-11-23T13:57:36;37.35;35.95;38.57;;
61270;Laerm;47150;53.032;8.960;2022-11-23T14:08:42;37.28;36.00;38.48;;
61270;Laerm;47150;53.032;8.960;2022-11-23T14:11:11;37.31;36.16;38.41;;
61270;Laerm;47150;53.032;8.960;2022-11-23T14:13:40;37.31;36.03;38.40;;
61270;Laerm;47150;53.032;8.960;2022-11-23T14:16:16;37.33;36.17;38.70;;
61270;Laerm;47150;53.032;8.960;2022-11-23T14:18:53;37.33;35.92;38.58;;
61270;Laerm;47150;53.032;8.960;2022-11-23T14:21:31;37.33;36.01;38.43;;
61270;Laerm;47150;53.032;8.960;2022-11-23T14:24:19;37.30;36.08;38.61;;
61270;Laerm;47150;53.032;8.960;2022-11-23T14:26:59;37.30;35.85;38.55;;
61270;Laerm;47150;53.032;8.960;2022-11-23T14:29:52;37.28;36.08;38.50;;
61270;Laerm;47150;53.032;8.960;2022-11-23T14:32:34;37.22;35.96;38.43;;
61270;Laerm;47150;53.032;8.960;2022-11-23T14:35:22;37.05;35.84;38.23;;
61270;Laerm;47150;53.032;8.960;2022-11-23T14:40:36;36.31;34.87;37.61;;
61270;Laerm;47150;53.032;8.960;2022-11-23T14:43:12;36.11;34.75;37.32;;
61270;Laerm;47150;53.032;8.960;2022-11-23T14:45:43;35.93;34.63;37.11;;
61270;Laerm;47150;53.032;8.960;2022-11-23T14:48:26;35.81;34.58;37.06;;
61270;Laerm;47150;53.032;8.960;2022-11-23T14:50:56;35.75;34.60;36.90;;
61270;Laerm;47150;53.032;8.960;2022-11-23T14:53:33;35.75;34.67;37.04;;
61270;Laerm;47150;53.032;8.960;2022-11-23T14:55:59;35.69;34.32;37.03;;
61270;Laerm;47150;53.032;8.960;2022-11-23T14:58:27;35.64;34.40;36.96;;
61270;Laerm;47150;53.032;8.960;2022-11-23T15:00:59;35.63;34.49;36.84;;
61270;Laerm;47150;53.032;8.960;2022-11-23T15:03:27;35.54;34.23;36.69;;
61270;Laerm;47150;53.032;8.960;2022-11-23T15:06:11;35.51;34.21;36.72;;
61270;Laerm;47150;53.032;8.960;2022-11-23T15:11:26;35.33;33.92;36.39;;
61270;Laerm;47150;53.032;8.960;2022-11-23T15:13:53;35.33;34.20;36.82;;
61270;Laerm;47150;53.032;8.960;2022-11-23T15:16:21;35.37;34.07;36.64;;
61270;Laerm;47150;53.032;8.960;2022-11-23T15:18:47;35.40;34.16;36.58;;
61270;Laerm;47150;53.032;8.960;2022-11-23T15:21:24;35.42;34.25;36.59;;
61270;Laerm;47150;53.032;8.960;2022-11-23T15:23:52;35.43;34.19;36.62;;
61270;Laerm;47150;53.032;8.960;2022-11-23T15:26:21;35.39;34.16;36.78;;
61270;Laerm;47150;53.032;8.960;2022-11-23T15:28:48;35.32;34.00;36.66;;
61270;Laerm;47150;53.032;8.960;2022-11-23T15:31:33;35.23;34.06;36.41;;
61270;Laerm;47150;53.032;8.960;2022-11-23T15:34:13;35.16;33.76;36.28;;
61270;Laerm;47150;53.032;8.960;2022-11-23T15:36:40;34.93;33.73;36.06;;
61270;Laerm;47150;53.032;8.960;2022-11-23T15:39:06;34.78;33.31;36.00;;
61270;Laerm;47150;53.032;8.960;2022-11-23T15:41:38;34.71;33.39;35.72;;
61270;Laerm;47150;53.032;8.960;2022-11-23T15:44:25;34.56;33.17;35.79;;
61270;Laerm;47150;53.032;8.960;2022-11-23T15:46:54;34.44;33.23;35.54;;
61270;Laerm;47150;53.032;8.960;2022-11-23T15:49:23;34.42;33.14;35.55;;
61270;Laerm;47150;53.032;8.960;2022-11-23T15:51:48;34.44;33.18;35.51;;
61270;Laerm;47150;53.032;8.960;2022-11-23T15:54:24;34.31;33.12;35.37;;
61270;Laerm;47150;53.032;8.960;2022-11-23T15:56:52;34.21;32.93;35.42;;
61270;Laerm;47150;53.032;8.960;2022-11-23T15:59:29;34.22;33.12;35.31;;
61270;Laerm;47150;53.032;8.960;2022-11-23T16:01:58;34.37;33.02;35.53;;
61270;Laerm;47150;53.032;8.960;2022-11-23T16:04:28;34.54;33.32;35.73;;